createdAt,value
2018-07-15T00:01:18.912Z,4.37
2018-07-15T00:03:47.952Z,5.53
2018-07-15T00:06:16.869Z,4.35
2018-07-15T00:08:45.984Z,4.20
2018-07-15T00:11:14.943Z,4.67
2018-07-15T00:13:43.860Z,4.62
2018-07-15T00:16:12.789Z,5.47
2018-07-15T00:18:41.722Z,4.90
2018-07-15T00:21:10.981Z,4.65
2018-07-15T00:23:40.034Z,5.70
2018-07-15T00:26:09.031Z,4.58
2018-07-15T00:28:37.937Z,6.92
2018-07-15T00:31:06.889Z,4.20
2018-07-15T00:33:35.822Z,4.15
2018-07-15T00:36:04.805Z,5.97
2018-07-15T00:38:33.897Z,5.53
2018-07-15T00:41:02.870Z,4.97
2018-07-15T00:43:32.052Z,5.05
2018-07-15T00:46:01.064Z,5.25
2018-07-15T00:48:30.009Z,4.90
2018-07-15T00:50:59.043Z,4.53
2018-07-15T00:53:28.327Z,4.33
2018-07-15T00:55:57.227Z,5.42
2018-07-15T00:58:26.150Z,4.92
2018-07-15T01:01:01.151Z,4.87
2018-07-15T01:03:31.650Z,5.45
2018-07-15T01:06:00.712Z,4.33
2018-07-15T01:08:29.777Z,4.83
2018-07-15T01:10:58.729Z,4.33
2018-07-15T01:13:27.595Z,5.37
2018-07-15T01:15:56.539Z,4.17
2018-07-15T01:18:25.968Z,5.10
2018-07-15T01:20:54.915Z,7.47
2018-07-15T01:23:23.891Z,5.30
2018-07-15T01:25:52.825Z,5.00
2018-07-15T01:28:22.171Z,6.47
2018-07-15T01:30:51.427Z,5.33
2018-07-15T01:33:20.337Z,4.60
2018-07-15T01:35:49.249Z,5.00
2018-07-15T01:38:18.231Z,6.20
2018-07-15T01:40:47.139Z,5.25
2018-07-15T01:43:16.070Z,5.97
2018-07-15T01:45:44.973Z,5.53
2018-07-15T01:48:13.884Z,5.53
2018-07-15T01:50:42.801Z,5.65
2018-07-15T01:53:11.745Z,4.60
2018-07-15T01:55:40.644Z,4.17
2018-07-15T01:58:09.551Z,4.95
2018-07-15T02:00:38.466Z,5.17
2018-07-15T02:03:07.401Z,4.47
2018-07-15T02:05:36.423Z,4.22
2018-07-15T02:08:05.725Z,4.58
2018-07-15T02:10:34.627Z,4.72
2018-07-15T02:13:03.614Z,4.90
2018-07-15T02:15:32.558Z,4.95
2018-07-15T02:18:01.815Z,5.42
2018-07-15T02:20:30.962Z,6.28
2018-07-15T02:22:59.972Z,5.30
2018-07-15T02:25:28.954Z,5.67
2018-07-15T02:27:57.849Z,5.03
2018-07-15T02:30:26.738Z,5.10
2018-07-15T02:32:55.993Z,4.65
2018-07-15T02:35:24.895Z,5.33
2018-07-15T02:37:54.231Z,5.30
2018-07-15T02:40:23.124Z,5.62
2018-07-15T02:42:52.114Z,5.62
2018-07-15T02:45:21.377Z,5.45
2018-07-15T02:47:50.293Z,5.65
2018-07-15T02:50:19.296Z,4.92
2018-07-15T02:52:48.372Z,7.53
2018-07-15T02:55:17.345Z,5.03
2018-07-15T02:57:46.239Z,4.87
2018-07-15T03:00:15.185Z,4.65
2018-07-15T03:02:44.101Z,5.33
2018-07-15T03:05:13.001Z,5.10
2018-07-15T03:07:41.921Z,5.08
2018-07-15T03:10:10.910Z,5.58
2018-07-15T03:12:39.926Z,6.22
2018-07-15T03:15:09.173Z,6.28
2018-07-15T03:17:38.087Z,5.05
2018-07-15T03:20:07.015Z,5.35
2018-07-15T03:22:35.905Z,6.30
2018-07-15T03:25:04.835Z,6.12
2018-07-15T03:27:33.781Z,5.45
2018-07-15T03:30:02.703Z,5.55
2018-07-15T03:32:31.767Z,4.78
2018-07-15T03:35:00.667Z,7.37
2018-07-15T03:37:29.583Z,6.70
2018-07-15T03:39:58.508Z,5.45
2018-07-15T03:42:27.601Z,6.75
2018-07-15T03:44:56.522Z,6.12
2018-07-15T03:47:25.453Z,6.67
2018-07-15T03:49:54.355Z,7.00
2018-07-15T03:52:23.263Z,5.80
2018-07-15T03:54:52.167Z,5.37
2018-07-15T03:57:21.102Z,5.20
2018-07-15T03:59:49.987Z,5.92
2018-07-15T04:02:18.886Z,5.95
2018-07-15T04:04:48.164Z,5.83
2018-07-15T04:07:17.065Z,6.40
2018-07-15T04:09:45.959Z,5.67
2018-07-15T04:12:14.878Z,8.45
2018-07-15T04:14:43.815Z,5.97
2018-07-15T04:17:12.918Z,6.83
2018-07-15T04:19:41.814Z,5.12
2018-07-15T04:22:10.730Z,5.42
2018-07-15T04:24:39.643Z,6.92
2018-07-15T04:27:08.978Z,6.45
2018-07-15T04:29:37.879Z,5.37
2018-07-15T04:32:06.778Z,5.60
2018-07-15T04:34:35.678Z,6.00
2018-07-15T04:37:04.762Z,5.15
2018-07-15T04:39:33.666Z,5.78
2018-07-15T04:42:02.758Z,5.78
2018-07-15T04:44:31.656Z,5.90
2018-07-15T04:47:00.585Z,5.70
2018-07-15T04:49:29.622Z,5.55
2018-07-15T04:51:58.544Z,4.42
2018-07-15T04:54:27.266Z,4.50
2018-07-15T04:56:56.167Z,4.72
2018-07-15T04:59:25.099Z,4.65
2018-07-15T05:01:54.008Z,5.40
2018-07-15T05:04:23.094Z,5.05
2018-07-15T05:06:52.444Z,6.33
2018-07-15T05:09:21.369Z,4.92
2018-07-15T05:11:50.282Z,5.03
2018-07-15T05:14:18.886Z,4.22
2018-07-15T05:16:47.821Z,5.60
2018-07-15T05:19:16.887Z,4.72
2018-07-15T05:21:45.809Z,5.22
2018-07-15T05:24:14.746Z,4.90
2018-07-15T05:26:43.633Z,4.55
2018-07-15T05:29:12.897Z,4.05
2018-07-15T05:31:41.815Z,4.12
2018-07-15T05:34:10.717Z,4.75
2018-07-15T05:36:39.625Z,3.92
2018-07-15T05:39:08.563Z,4.60
2018-07-15T05:41:37.477Z,4.08
2018-07-15T05:44:07.073Z,4.22
2018-07-15T05:46:36.037Z,4.30
2018-07-15T05:49:05.500Z,4.53
2018-07-15T05:51:34.852Z,3.30
2018-07-15T05:54:04.164Z,5.95
2018-07-15T05:56:33.088Z,3.45
2018-07-15T05:59:01.995Z,4.03
2018-07-15T06:01:30.949Z,5.67
2018-07-15T06:03:59.843Z,3.15
2018-07-15T06:06:28.776Z,3.12
2018-07-15T06:08:57.697Z,3.37
2018-07-15T06:11:26.724Z,3.22
2018-07-15T06:13:55.638Z,3.42
2018-07-15T06:16:24.552Z,3.58
2018-07-15T06:18:53.466Z,3.27
2018-07-15T06:21:22.712Z,3.95
2018-07-15T06:23:52.016Z,4.15
2018-07-15T06:26:20.898Z,4.53
2018-07-15T06:28:49.901Z,3.90
2018-07-15T06:31:19.161Z,4.75
2018-07-15T06:33:48.148Z,2.90
2018-07-15T06:36:17.064Z,3.75
2018-07-15T06:38:45.966Z,5.72
2018-07-15T06:41:14.896Z,3.47
2018-07-15T06:43:43.821Z,3.27
2018-07-15T06:46:12.798Z,3.95
2018-07-15T06:48:41.714Z,3.33
2018-07-15T06:51:10.694Z,2.77
2018-07-15T06:53:39.590Z,2.95
2018-07-15T06:56:08.723Z,2.55
2018-07-15T06:58:37.686Z,3.83
2018-07-15T07:01:06.633Z,2.92
2018-07-15T07:03:35.951Z,2.87
2018-07-15T07:06:04.922Z,3.10
2018-07-15T07:08:33.891Z,3.20
2018-07-15T07:11:02.791Z,2.52
2018-07-15T07:13:31.524Z,2.80
2018-07-15T07:16:00.449Z,3.10
2018-07-15T07:18:29.389Z,3.45
2018-07-15T07:20:58.293Z,3.33
2018-07-15T07:23:27.187Z,3.98
2018-07-15T07:25:56.117Z,4.25
2018-07-15T07:28:25.031Z,3.60
2018-07-15T07:30:54.021Z,2.50
2018-07-15T07:33:23.181Z,3.33
2018-07-15T07:35:52.090Z,2.42
2018-07-15T07:38:21.025Z,2.85
2018-07-15T07:40:50.250Z,2.67
2018-07-15T07:43:19.266Z,2.60
2018-07-15T07:45:48.178Z,3.22
2018-07-15T07:48:17.095Z,3.05
2018-07-15T07:50:46.135Z,4.28
2018-07-15T07:53:15.302Z,4.42
2018-07-15T07:55:44.376Z,3.52
2018-07-15T07:58:13.325Z,3.02
2018-07-15T08:00:42.235Z,3.02
2018-07-15T08:03:11.143Z,3.60
2018-07-15T08:05:40.048Z,3.55
2018-07-15T08:08:08.931Z,2.98
2018-07-15T08:10:37.849Z,3.52
2018-07-15T08:13:06.926Z,2.95
2018-07-15T08:15:36.287Z,2.75
2018-07-15T08:18:05.590Z,2.70
2018-07-15T08:20:34.464Z,2.87
2018-07-15T08:23:03.406Z,3.65
2018-07-15T08:25:32.455Z,3.02
2018-07-15T08:28:01.441Z,3.83
2018-07-15T08:30:41.920Z,3.52
2018-07-15T08:33:10.811Z,2.47
2018-07-15T08:35:39.789Z,4.47
2018-07-15T08:38:08.750Z,3.65
2018-07-15T08:40:37.711Z,5.62
2018-07-15T08:43:06.843Z,3.08
2018-07-15T08:45:35.781Z,3.27
2018-07-15T08:48:04.917Z,3.30
2018-07-15T08:50:34.230Z,4.17
2018-07-15T08:53:03.171Z,4.80
2018-07-15T08:55:32.120Z,3.30
2018-07-15T08:58:01.059Z,3.08
2018-07-15T09:00:30.119Z,3.35
2018-07-15T09:02:59.031Z,3.40
2018-07-15T09:05:28.523Z,3.65
2018-07-15T09:07:57.570Z,4.30
2018-07-15T09:10:26.653Z,3.22
2018-07-15T09:12:55.677Z,3.35
2018-07-15T09:15:24.711Z,5.25
2018-07-15T09:17:53.633Z,3.20
2018-07-15T09:20:22.566Z,3.15
2018-07-15T09:22:51.525Z,4.17
2018-07-15T09:25:20.689Z,4.05
2018-07-15T09:27:49.601Z,3.77
2018-07-15T09:30:18.509Z,4.75
2018-07-15T09:32:47.548Z,3.35
2018-07-15T09:35:16.463Z,3.85
2018-07-15T09:37:45.377Z,4.95
2018-07-15T09:40:14.277Z,3.35
2018-07-15T09:42:43.203Z,5.00
2018-07-15T09:45:12.149Z,4.03
2018-07-15T09:47:41.061Z,4.03
2018-07-15T09:50:09.992Z,5.55
2018-07-15T09:52:38.614Z,3.87
2018-07-15T09:55:08.400Z,4.28
2018-07-15T09:57:37.875Z,3.83
2018-07-15T10:00:08.547Z,5.37
2018-07-15T10:02:37.552Z,5.08
2018-07-15T10:05:06.488Z,3.92
2018-07-15T10:07:35.861Z,4.10
2018-07-15T10:10:05.339Z,4.25
2018-07-15T10:12:34.443Z,4.12
2018-07-15T10:15:03.442Z,4.75
2018-07-15T10:17:32.354Z,4.40
2018-07-15T10:20:01.381Z,4.08
2018-07-15T10:22:30.297Z,5.95
2018-07-15T10:24:59.261Z,4.42
2018-07-15T10:27:34.561Z,5.53
2018-07-15T10:30:04.202Z,4.30
2018-07-15T10:32:33.340Z,4.80
2018-07-15T10:35:02.489Z,9.35
2018-07-15T10:37:31.406Z,8.13
2018-07-15T10:40:00.342Z,6.20
2018-07-15T10:42:29.715Z,6.28
2018-07-15T10:44:58.638Z,5.20
2018-07-15T10:47:27.555Z,4.08
2018-07-15T10:49:56.645Z,10.93
2018-07-15T10:52:25.586Z,5.72
2018-07-15T10:54:54.532Z,4.58
2018-07-15T10:57:23.518Z,5.12
2018-07-15T10:59:52.404Z,5.53
2018-07-15T11:02:21.791Z,5.05
2018-07-15T11:04:50.821Z,4.75
2018-07-15T11:07:20.179Z,7.42
2018-07-15T11:09:49.074Z,5.70
2018-07-15T11:12:17.964Z,5.65
2018-07-15T11:14:46.878Z,4.55
2018-07-15T11:17:15.848Z,4.58
2018-07-15T11:19:44.673Z,4.67
2018-07-15T11:22:13.637Z,5.58
2018-07-15T11:24:42.442Z,4.60
2018-07-15T11:27:11.551Z,5.42
2018-07-15T11:29:40.526Z,5.30
2018-07-15T11:32:10.033Z,5.13
2018-07-15T11:34:39.007Z,6.10
2018-07-15T11:37:07.933Z,13.03
2018-07-15T11:39:36.360Z,5.63
2018-07-15T11:42:05.010Z,4.93
2018-07-15T11:44:33.638Z,6.57
2018-07-15T11:47:02.285Z,5.43
2018-07-15T11:49:30.967Z,4.60
2018-07-15T11:51:59.791Z,4.80
2018-07-15T11:54:28.663Z,4.73
2018-07-15T11:56:57.847Z,4.63
2018-07-15T11:59:26.507Z,4.77
2018-07-15T12:01:55.847Z,8.60
2018-07-15T12:04:24.663Z,5.83
2018-07-15T12:06:53.416Z,4.87
2018-07-15T12:09:22.081Z,5.73
2018-07-15T12:11:50.696Z,4.40
2018-07-15T12:14:19.327Z,5.13
2018-07-15T12:16:48.039Z,4.37
2018-07-15T12:19:16.798Z,4.03
2018-07-15T12:21:45.400Z,4.33
2018-07-15T12:24:14.042Z,4.33
2018-07-15T12:26:42.768Z,4.60
2018-07-15T12:29:11.378Z,5.50
2018-07-15T12:31:39.994Z,4.20
2018-07-15T12:34:08.645Z,6.20
2018-07-15T12:36:37.286Z,5.57
2018-07-15T12:39:06.750Z,4.87
2018-07-15T12:41:35.836Z,4.43
2018-07-15T12:44:04.464Z,4.63
2018-07-15T12:46:33.086Z,5.77
2018-07-15T12:49:01.784Z,6.20
2018-07-15T12:51:30.451Z,4.47
2018-07-15T12:53:59.094Z,3.97
2018-07-15T12:56:27.745Z,4.90
2018-07-15T12:58:56.405Z,5.03
2018-07-15T13:01:25.117Z,6.10
2018-07-15T13:03:53.911Z,5.20
2018-07-15T13:06:22.553Z,5.10
2018-07-15T13:08:51.209Z,5.83
2018-07-15T13:11:19.871Z,5.07
2018-07-15T13:13:48.637Z,5.93
2018-07-15T13:16:17.292Z,6.17
2018-07-15T13:18:46.209Z,8.53
2018-07-15T13:21:15.162Z,14.37
2018-07-15T13:23:43.905Z,5.07
2018-07-15T13:26:12.890Z,5.50
2018-07-15T13:28:41.531Z,4.63
2018-07-15T13:31:10.221Z,5.13
2018-07-15T13:33:38.855Z,4.50
2018-07-15T13:36:07.489Z,6.63
2018-07-15T13:38:36.140Z,7.57
2018-07-15T13:41:04.804Z,5.20
2018-07-15T13:43:33.651Z,4.07
2018-07-15T13:46:02.453Z,3.40
2018-07-15T13:48:31.108Z,3.30
2018-07-15T13:50:59.898Z,3.07
2018-07-15T13:53:28.687Z,3.40
2018-07-15T13:55:57.371Z,2.90
2018-07-15T13:58:26.008Z,3.27
2018-07-15T14:00:54.693Z,2.63
2018-07-15T14:03:23.309Z,2.80
2018-07-15T14:05:52.292Z,2.30
2018-07-15T14:08:20.932Z,2.50
2018-07-15T14:10:49.642Z,2.67
2018-07-15T14:13:18.288Z,2.83
2018-07-15T14:15:47.117Z,2.30
2018-07-15T14:18:15.755Z,3.83
2018-07-15T14:20:44.386Z,1.90
2018-07-15T14:23:13.022Z,1.90
2018-07-15T14:25:41.826Z,1.70
2018-07-15T14:28:10.511Z,1.50
2018-07-15T14:30:39.133Z,2.47
2018-07-15T14:33:07.810Z,1.40
2018-07-15T14:35:36.496Z,1.50
2018-07-15T14:38:05.763Z,1.97
2018-07-15T14:40:34.449Z,1.47
2018-07-15T14:43:03.103Z,1.60
2018-07-15T14:45:31.761Z,1.77
2018-07-15T14:48:00.516Z,1.50
2018-07-15T14:50:29.146Z,1.50
2018-07-15T14:52:58.141Z,1.77
2018-07-15T14:55:26.872Z,1.50
2018-07-15T14:57:55.890Z,2.23
2018-07-15T15:00:24.517Z,2.40
2018-07-15T15:02:53.155Z,1.60
2018-07-15T15:05:21.857Z,2.13
2018-07-15T15:07:50.466Z,1.50
2018-07-15T15:10:19.123Z,3.70
2018-07-15T15:12:47.804Z,1.27
2018-07-15T15:15:16.490Z,1.27
2018-07-15T15:17:45.150Z,1.63
2018-07-15T15:20:13.855Z,1.13
2018-07-15T15:22:42.456Z,1.30
2018-07-15T15:25:11.078Z,1.27
2018-07-15T15:27:39.728Z,1.17
2018-07-15T15:30:08.474Z,1.30
2018-07-15T15:32:37.155Z,1.40
2018-07-15T15:35:05.826Z,1.23
2018-07-15T15:37:34.470Z,1.20
2018-07-15T15:40:03.570Z,1.20
2018-07-15T15:42:32.304Z,2.10
2018-07-15T15:45:01.200Z,1.23
2018-07-15T15:47:30.214Z,1.07
2018-07-15T15:49:58.858Z,1.30
2018-07-15T15:52:27.906Z,1.27
2018-07-15T15:54:56.612Z,0.90
2018-07-15T15:57:31.739Z,2.20
2018-07-15T16:00:00.423Z,1.30
2018-07-15T16:02:29.198Z,3.43
2018-07-15T16:04:57.827Z,3.47
2018-07-15T16:07:26.452Z,6.13
2018-07-15T16:09:55.051Z,2.40
2018-07-15T16:12:23.818Z,1.10
2018-07-15T16:14:52.497Z,1.67
2018-07-15T16:17:21.129Z,0.90
2018-07-15T16:19:49.786Z,2.30
2018-07-15T16:22:18.581Z,2.00
2018-07-15T16:24:47.563Z,0.90
2018-07-15T16:27:15.904Z,3.00
2018-07-15T16:29:45.045Z,1.20
2018-07-15T16:32:13.694Z,1.30
2018-07-15T16:34:42.332Z,1.00
2018-07-15T16:37:11.500Z,1.20
2018-07-15T16:39:40.183Z,1.60
2018-07-15T16:42:08.826Z,6.63
2018-07-15T16:44:37.467Z,6.17
2018-07-15T16:47:07.736Z,2.30
2018-07-15T16:49:36.387Z,2.07
2018-07-15T16:52:05.052Z,2.80
2018-07-15T16:54:33.709Z,2.10
2018-07-15T16:57:02.364Z,0.90
2018-07-15T16:59:31.092Z,2.07
2018-07-15T17:02:00.084Z,2.40
2018-07-15T17:04:28.922Z,0.90
2018-07-15T17:06:57.602Z,1.03
2018-07-15T17:09:26.459Z,1.10
2018-07-15T17:11:55.086Z,3.50
2018-07-15T17:14:24.091Z,1.10
2018-07-15T17:16:53.071Z,0.90
2018-07-15T17:19:21.719Z,0.90
2018-07-15T17:21:50.396Z,1.33
2018-07-15T17:24:19.216Z,0.80
2018-07-15T17:26:47.829Z,2.37
2018-07-15T17:29:16.504Z,2.30
2018-07-15T17:31:45.189Z,2.90
2018-07-15T17:34:13.813Z,2.07
2018-07-15T17:36:42.466Z,1.77
2018-07-15T17:39:11.127Z,2.17
2018-07-15T17:41:39.877Z,1.20
2018-07-15T17:44:08.563Z,1.73
2018-07-15T17:46:37.687Z,2.50
2018-07-15T17:49:06.412Z,2.37
2018-07-15T17:51:35.077Z,8.33
2018-07-15T17:54:04.163Z,15.13
2018-07-15T17:56:32.784Z,2.73
2018-07-15T17:59:01.624Z,3.70
2018-07-15T18:01:30.650Z,2.23
2018-07-15T18:03:59.300Z,1.80
2018-07-15T18:06:28.056Z,1.90
2018-07-15T18:08:56.736Z,1.87
2018-07-15T18:11:25.439Z,3.50
2018-07-15T18:13:54.122Z,2.83
2018-07-15T18:16:22.780Z,4.00
2018-07-15T18:18:51.432Z,7.63
2018-07-15T18:21:20.120Z,2.40
2018-07-15T18:23:49.180Z,3.87
2018-07-15T18:26:17.908Z,2.10
2018-07-15T18:28:46.519Z,1.27
2018-07-15T18:31:15.138Z,3.27
2018-07-15T18:33:43.751Z,2.00
2018-07-15T18:36:12.448Z,1.73
2018-07-15T18:38:41.106Z,1.97
2018-07-15T18:41:09.746Z,3.67
2018-07-15T18:43:38.735Z,2.57
2018-07-15T18:46:07.727Z,3.00
2018-07-15T18:48:36.377Z,2.60
2018-07-15T18:51:05.535Z,1.45
2018-07-15T18:53:34.597Z,2.75
2018-07-15T18:56:03.769Z,2.55
2018-07-15T18:58:32.822Z,1.90
2018-07-15T19:01:01.780Z,2.72
2018-07-15T19:03:30.745Z,2.25
2018-07-15T19:05:59.756Z,1.57
2018-07-15T19:08:28.996Z,1.55
2018-07-15T19:10:57.959Z,1.52
2018-07-15T19:13:26.986Z,1.85
2018-07-15T19:15:55.926Z,1.62
2018-07-15T19:18:25.038Z,1.80
2018-07-15T19:20:54.083Z,3.02
2018-07-15T19:23:23.035Z,1.75
2018-07-15T19:25:51.960Z,1.85
2018-07-15T19:28:20.939Z,2.60
2018-07-15T19:30:49.864Z,1.67
2018-07-15T19:33:18.868Z,1.80
2018-07-15T19:35:47.790Z,1.50
2018-07-15T19:38:16.778Z,1.87
2018-07-15T19:40:46.149Z,1.62
2018-07-15T19:43:15.308Z,2.10
2018-07-15T19:45:44.236Z,5.45
2018-07-15T19:48:13.142Z,1.70
2018-07-15T19:50:41.760Z,3.83
2018-07-15T19:53:10.777Z,2.10
2018-07-15T19:55:39.694Z,5.37
2018-07-15T19:58:08.654Z,4.87
2018-07-15T20:00:37.577Z,5.28
2018-07-15T20:03:06.917Z,4.17
2018-07-15T20:05:36.000Z,3.67
2018-07-15T20:08:04.930Z,3.60
2018-07-15T20:10:33.842Z,3.10
2018-07-15T20:13:03.252Z,4.60
2018-07-15T20:15:32.507Z,3.98
2018-07-15T20:18:01.423Z,3.85
2018-07-15T20:20:30.353Z,3.37
2018-07-15T20:22:59.277Z,2.90
2018-07-15T20:25:28.189Z,4.58
2018-07-15T20:27:57.097Z,2.67
2018-07-15T20:30:26.011Z,4.00
2018-07-15T20:32:54.946Z,4.40
2018-07-15T20:35:23.953Z,2.00
2018-07-15T20:37:53.073Z,5.83
2018-07-15T20:40:21.987Z,1.87
2018-07-15T20:42:51.045Z,3.10
2018-07-15T20:45:20.303Z,2.22
2018-07-15T20:47:49.241Z,2.00
2018-07-15T20:50:18.161Z,2.60
2018-07-15T20:52:47.626Z,2.83
2018-07-15T20:55:16.625Z,2.47
2018-07-15T20:57:45.548Z,3.90
2018-07-15T21:00:14.521Z,3.30
2018-07-15T21:02:43.558Z,3.62
2018-07-15T21:05:13.081Z,4.12
2018-07-15T21:07:42.034Z,4.60
2018-07-15T21:10:11.091Z,4.53
2018-07-15T21:12:40.227Z,2.42
2018-07-15T21:15:09.149Z,2.33
2018-07-15T21:17:38.162Z,3.15
2018-07-15T21:20:07.105Z,2.40
2018-07-15T21:22:36.036Z,2.20
2018-07-15T21:25:05.349Z,2.10
2018-07-15T21:27:34.254Z,3.25
2018-07-15T21:30:03.589Z,2.72
2018-07-15T21:32:32.498Z,3.85
2018-07-15T21:35:01.450Z,2.30
2018-07-15T21:37:30.379Z,2.15
2018-07-15T21:39:59.285Z,3.55
2018-07-15T21:42:28.190Z,3.75
2018-07-15T21:44:57.105Z,3.95
2018-07-15T21:47:26.034Z,1.95
2018-07-15T21:49:55.181Z,2.20
2018-07-15T21:52:24.478Z,2.17
2018-07-15T21:54:53.730Z,2.12
2018-07-15T21:57:22.674Z,3.72
2018-07-15T21:59:51.768Z,3.00
2018-07-15T22:02:21.294Z,2.50
2018-07-15T22:04:49.966Z,2.70
2018-07-15T22:07:30.026Z,4.08
2018-07-15T22:10:14.818Z,4.85
2018-07-15T22:12:43.758Z,2.40
2018-07-15T22:15:12.686Z,2.40
2018-07-15T22:17:41.628Z,3.37
2018-07-15T22:20:10.950Z,3.22
2018-07-15T22:22:39.872Z,2.60
2018-07-15T22:25:08.762Z,2.42
2018-07-15T22:27:37.395Z,2.37
2018-07-15T22:30:06.401Z,2.75
2018-07-15T22:32:35.310Z,2.50
2018-07-15T22:35:04.322Z,2.50
2018-07-15T22:37:33.247Z,3.72
2018-07-15T22:40:02.185Z,2.52
2018-07-15T22:42:31.601Z,2.50
2018-07-15T22:45:00.511Z,3.67
2018-07-15T22:47:30.139Z,3.05
2018-07-15T22:49:59.165Z,2.70
2018-07-15T22:52:28.504Z,2.40
2018-07-15T22:54:57.691Z,3.10
2018-07-15T22:57:26.625Z,3.52
2018-07-15T22:59:55.781Z,2.83
2018-07-15T23:02:24.859Z,3.15
2018-07-15T23:06:02.727Z,2.50
2018-07-15T23:08:32.617Z,3.12
2018-07-15T23:11:01.245Z,2.85
2018-07-15T23:13:30.181Z,2.87
2018-07-15T23:15:59.188Z,4.60
2018-07-15T23:18:28.119Z,3.60
2018-07-15T23:20:57.068Z,2.70
2018-07-15T23:23:25.975Z,2.98
2018-07-15T23:25:55.324Z,3.10
2018-07-15T23:28:24.271Z,4.33
2018-07-15T23:30:53.207Z,2.92
2018-07-15T23:33:22.127Z,2.60
2018-07-15T23:35:51.028Z,2.60
2018-07-15T23:38:19.952Z,2.75
2018-07-15T23:40:48.974Z,4.70
2018-07-15T23:43:17.904Z,2.60
2018-07-15T23:45:46.882Z,2.47
2018-07-15T23:48:16.078Z,2.70
2018-07-15T23:50:45.014Z,2.42
2018-07-15T23:53:13.952Z,3.27
2018-07-15T23:55:42.909Z,2.87
2018-07-15T23:58:12.192Z,2.87
